sensor_id;sensor_type;location;lat;lon;timestamp;pressure;altitude;pressure_sealevel;temperature
74539;BMP180;66042;51.090;-115.340;2023-05-10T00:01:13;86598.00;;;25.14
74539;BMP180;66042;51.090;-115.340;2023-05-10T00:03:40;86595.60;;;24.50
74539;BMP180;66042;51.090;-115.340;2023-05-10T00:06:07;86593.40;;;24.10
74539;BMP180;66042;51.090;-115.340;2023-05-10T00:08:34;86595.20;;;23.70
74539;BMP180;66042;51.090;-115.340;2023-05-10T00:11:01;86598.20;;;23.10
74539;BMP180;66042;51.090;-115.340;2023-05-10T00:13:29;86594.80;;;22.60
74539;BMP180;66042;51.090;-115.340;2023-05-10T00:15:55;86590.80;;;22.20
74539;BMP180;66042;51.090;-115.340;2023-05-10T00:18:22;86596.80;;;21.82
74539;BMP180;66042;51.090;-115.340;2023-05-10T00:20:49;86591.20;;;21.50
74539;BMP180;66042;51.090;-115.340;2023-05-10T00:23:16;86592.00;;;21.10
74539;BMP180;66042;51.090;-115.340;2023-05-10T00:25:43;86593.20;;;20.66
74539;BMP180;66042;51.090;-115.340;2023-05-10T00:28:10;86593.00;;;20.30
74539;BMP180;66042;51.090;-115.340;2023-05-10T00:30:37;86595.40;;;20.04
74539;BMP180;66042;51.090;-115.340;2023-05-10T00:33:05;86594.40;;;19.80
74539;BMP180;66042;51.090;-115.340;2023-05-10T00:35:32;86587.40;;;19.60
74539;BMP180;66042;51.090;-115.340;2023-05-10T00:37:58;86586.20;;;19.48
74539;BMP180;66042;51.090;-115.340;2023-05-10T00:40:25;86579.00;;;19.10
74539;BMP180;66042;51.090;-115.340;2023-05-10T00:42:52;86580.40;;;18.70
74539;BMP180;66042;51.090;-115.340;2023-05-10T00:45:19;86580.80;;;18.40
74539;BMP180;66042;51.090;-115.340;2023-05-10T00:47:46;86577.40;;;18.10
74539;BMP180;66042;51.090;-115.340;2023-05-10T00:50:14;86577.80;;;18.10
74539;BMP180;66042;51.090;-115.340;2023-05-10T00:52:42;86568.60;;;17.96
74539;BMP180;66042;51.090;-115.340;2023-05-10T00:55:11;86570.20;;;17.90
74539;BMP180;66042;51.090;-115.340;2023-05-10T00:57:39;86569.80;;;17.80
74539;BMP180;66042;51.090;-115.340;2023-05-10T01:00:07;86569.60;;;17.80
74539;BMP180;66042;51.090;-115.340;2023-05-10T01:02:34;86568.80;;;17.90
74539;BMP180;66042;51.090;-115.340;2023-05-10T01:05:03;86570.80;;;17.82
74539;BMP180;66042;51.090;-115.340;2023-05-10T01:07:30;86569.00;;;17.80
74539;BMP180;66042;51.090;-115.340;2023-05-10T01:09:57;86572.40;;;17.80
74539;BMP180;66042;51.090;-115.340;2023-05-10T01:12:25;86575.80;;;17.70
74539;BMP180;66042;51.090;-115.340;2023-05-10T01:14:53;86575.60;;;17.70
74539;BMP180;66042;51.090;-115.340;2023-05-10T01:17:22;86580.40;;;17.40
74539;BMP180;66042;51.090;-115.340;2023-05-10T01:19:49;86577.00;;;17.20
74539;BMP180;66042;51.090;-115.340;2023-05-10T01:31:35;86582.80;;;16.30
74539;BMP180;66042;51.090;-115.340;2023-05-10T01:34:19;86584.20;;;16.00
74539;BMP180;66042;51.090;-115.340;2023-05-10T01:37:06;86587.60;;;15.72
74539;BMP180;66042;51.090;-115.340;2023-05-10T01:40:06;86589.40;;;15.50
74539;BMP180;66042;51.090;-115.340;2023-05-10T01:42:51;86588.80;;;15.40
74539;BMP180;66042;51.090;-115.340;2023-05-10T01:46:02;86589.80;;;15.14
74539;BMP180;66042;51.090;-115.340;2023-05-10T01:48:31;86592.20;;;15.00
74539;BMP180;66042;51.090;-115.340;2023-05-10T01:50:59;86594.40;;;14.80
74539;BMP180;66042;51.090;-115.340;2023-05-10T01:53:27;86593.80;;;14.62
74539;BMP180;66042;51.090;-115.340;2023-05-10T01:55:56;86593.00;;;14.50
74539;BMP180;66042;51.090;-115.340;2023-05-10T01:58:32;86598.20;;;14.30
74539;BMP180;66042;51.090;-115.340;2023-05-10T02:01:03;86600.80;;;14.20
74539;BMP180;66042;51.090;-115.340;2023-05-10T02:03:32;86602.60;;;14.00
74539;BMP180;66042;51.090;-115.340;2023-05-10T02:06:02;86606.60;;;13.90
74539;BMP180;66042;51.090;-115.340;2023-05-10T02:08:31;86618.00;;;13.70
74539;BMP180;66042;51.090;-115.340;2023-05-10T02:11:00;86617.80;;;13.60
74539;BMP180;66042;51.090;-115.340;2023-05-10T02:13:31;86621.00;;;13.40
74539;BMP180;66042;51.090;-115.340;2023-05-10T02:16:00;86626.20;;;13.30
74539;BMP180;66042;51.090;-115.340;2023-05-10T02:18:28;86626.80;;;13.20
74539;BMP180;66042;51.090;-115.340;2023-05-10T02:20:57;86628.00;;;13.10
74539;BMP180;66042;51.090;-115.340;2023-05-10T02:23:27;86629.80;;;13.00
74539;BMP180;66042;51.090;-115.340;2023-05-10T02:25:56;86634.40;;;12.84
74539;BMP180;66042;51.090;-115.340;2023-05-10T02:28:25;86642.20;;;12.74
74539;BMP180;66042;51.090;-115.340;2023-05-10T02:30:54;86651.20;;;12.52
74539;BMP180;66042;51.090;-115.340;2023-05-10T02:33:22;86657.20;;;12.40
74539;BMP180;66042;51.090;-115.340;2023-05-10T02:35:51;86663.80;;;12.20
74539;BMP180;66042;51.090;-115.340;2023-05-10T02:38:21;86664.20;;;12.02
74539;BMP180;66042;51.090;-115.340;2023-05-10T02:40:49;86673.20;;;11.96
74539;BMP180;66042;51.090;-115.340;2023-05-10T02:43:18;86676.20;;;11.88
74539;BMP180;66042;51.090;-115.340;2023-05-10T02:45:48;86675.20;;;11.66
74539;BMP180;66042;51.090;-115.340;2023-05-10T02:48:15;86674.40;;;11.60
74539;BMP180;66042;51.090;-115.340;2023-05-10T02:50:45;86681.80;;;11.50
74539;BMP180;66042;51.090;-115.340;2023-05-10T02:53:30;86685.60;;;11.40
74539;BMP180;66042;51.090;-115.340;2023-05-10T02:56:04;86686.20;;;11.34
74539;BMP180;66042;51.090;-115.340;2023-05-10T02:58:35;86690.00;;;11.26
74539;BMP180;66042;51.090;-115.340;2023-05-10T03:01:02;86693.00;;;11.20
74539;BMP180;66042;51.090;-115.340;2023-05-10T03:03:29;86698.00;;;11.10
74539;BMP180;66042;51.090;-115.340;2023-05-10T03:05:56;86699.80;;;11.10
74539;BMP180;66042;51.090;-115.340;2023-05-10T03:08:24;86701.20;;;11.10
74539;BMP180;66042;51.090;-115.340;2023-05-10T03:17:30;86706.00;;;10.98
74539;BMP180;66042;51.090;-115.340;2023-05-10T03:20:06;86705.80;;;10.90
74539;BMP180;66042;51.090;-115.340;2023-05-10T03:22:51;86707.40;;;10.80
74539;BMP180;66042;51.090;-115.340;2023-05-10T03:25:21;86710.40;;;10.80
74539;BMP180;66042;51.090;-115.340;2023-05-10T03:27:51;86719.80;;;10.70
74539;BMP180;66042;51.090;-115.340;2023-05-10T03:30:19;86723.00;;;10.60
74539;BMP180;66042;51.090;-115.340;2023-05-10T03:32:46;86722.60;;;10.60
74539;BMP180;66042;51.090;-115.340;2023-05-10T03:35:13;86721.20;;;10.50
74539;BMP180;66042;51.090;-115.340;2023-05-10T03:37:40;86727.00;;;10.50
74539;BMP180;66042;51.090;-115.340;2023-05-10T03:40:09;86731.80;;;10.40
74539;BMP180;66042;51.090;-115.340;2023-05-10T03:42:36;86734.20;;;10.40
74539;BMP180;66042;51.090;-115.340;2023-05-10T03:45:03;86734.40;;;10.30
74539;BMP180;66042;51.090;-115.340;2023-05-10T03:47:33;86738.40;;;10.32
74539;BMP180;66042;51.090;-115.340;2023-05-10T03:49:59;86742.20;;;10.36
74539;BMP180;66042;51.090;-115.340;2023-05-10T03:52:26;86743.20;;;10.40
74539;BMP180;66042;51.090;-115.340;2023-05-10T03:54:53;86741.40;;;10.40
74539;BMP180;66042;51.090;-115.340;2023-05-10T03:57:19;86747.20;;;10.30
74539;BMP180;66042;51.090;-115.340;2023-05-10T03:59:46;86748.80;;;10.30
74539;BMP180;66042;51.090;-115.340;2023-05-10T04:02:13;86750.00;;;10.30
74539;BMP180;66042;51.090;-115.340;2023-05-10T04:04:39;86752.20;;;10.30
74539;BMP180;66042;51.090;-115.340;2023-05-10T04:07:06;86751.60;;;10.30
74539;BMP180;66042;51.090;-115.340;2023-05-10T04:09:32;86750.40;;;10.30
74539;BMP180;66042;51.090;-115.340;2023-05-10T04:11:59;86755.20;;;10.30
74539;BMP180;66042;51.090;-115.340;2023-05-10T04:14:28;86755.60;;;10.30
74539;BMP180;66042;51.090;-115.340;2023-05-10T04:16:56;86754.40;;;10.20
74539;BMP180;66042;51.090;-115.340;2023-05-10T04:19:22;86751.00;;;10.10
74539;BMP180;66042;51.090;-115.340;2023-05-10T04:21:49;86750.40;;;10.10
74539;BMP180;66042;51.090;-115.340;2023-05-10T04:24:16;86746.40;;;10.10
74539;BMP180;66042;51.090;-115.340;2023-05-10T04:26:42;86741.20;;;10.10
74539;BMP180;66042;51.090;-115.340;2023-05-10T04:29:09;86746.80;;;10.10
74539;BMP180;66042;51.090;-115.340;2023-05-10T04:31:36;86747.40;;;10.04
74539;BMP180;66042;51.090;-115.340;2023-05-10T04:34:06;86741.60;;;10.00
74539;BMP180;66042;51.090;-115.340;2023-05-10T04:36:36;86740.40;;;10.00
74539;BMP180;66042;51.090;-115.340;2023-05-10T04:39:04;86739.60;;;9.98
74539;BMP180;66042;51.090;-115.340;2023-05-10T04:41:31;86740.40;;;9.90
74539;BMP180;66042;51.090;-115.340;2023-05-10T04:43:58;86739.20;;;9.90
74539;BMP180;66042;51.090;-115.340;2023-05-10T04:46:25;86738.20;;;9.86
74539;BMP180;66042;51.090;-115.340;2023-05-10T04:48:52;86743.00;;;9.80
74539;BMP180;66042;51.090;-115.340;2023-05-10T04:51:18;86739.40;;;9.72
74539;BMP180;66042;51.090;-115.340;2023-05-10T04:53:45;86739.20;;;9.70
74539;BMP180;66042;51.090;-115.340;2023-05-10T04:56:11;86739.60;;;9.60
74539;BMP180;66042;51.090;-115.340;2023-05-10T04:58:41;86737.80;;;9.52
74539;BMP180;66042;51.090;-115.340;2023-05-10T05:01:08;86738.60;;;9.50
74539;BMP180;66042;51.090;-115.340;2023-05-10T05:03:37;86740.60;;;9.50
74539;BMP180;66042;51.090;-115.340;2023-05-10T05:06:04;86737.00;;;9.40
74539;BMP180;66042;51.090;-115.340;2023-05-10T05:08:31;86735.60;;;9.40
74539;BMP180;66042;51.090;-115.340;2023-05-10T05:10:58;86733.40;;;9.30
74539;BMP180;66042;51.090;-115.340;2023-05-10T05:13:25;86732.80;;;9.30
74539;BMP180;66042;51.090;-115.340;2023-05-10T05:15:53;86734.80;;;9.20
74539;BMP180;66042;51.090;-115.340;2023-05-10T05:18:23;86735.00;;;9.20
74539;BMP180;66042;51.090;-115.340;2023-05-10T05:20:50;86738.80;;;9.20
74539;BMP180;66042;51.090;-115.340;2023-05-10T05:23:17;86739.80;;;9.10
74539;BMP180;66042;51.090;-115.340;2023-05-10T05:25:45;86740.40;;;9.00
74539;BMP180;66042;51.090;-115.340;2023-05-10T05:28:12;86740.00;;;9.00
74539;BMP180;66042;51.090;-115.340;2023-05-10T05:30:39;86736.60;;;9.00
74539;BMP180;66042;51.090;-115.340;2023-05-10T05:33:06;86737.80;;;9.00
74539;BMP180;66042;51.090;-115.340;2023-05-10T05:35:33;86740.00;;;9.00
74539;BMP180;66042;51.090;-115.340;2023-05-10T05:37:59;86742.40;;;8.96
74539;BMP180;66042;51.090;-115.340;2023-05-10T05:40:28;86740.20;;;9.00
74539;BMP180;66042;51.090;-115.340;2023-05-10T05:42:55;86739.00;;;8.90
74539;BMP180;66042;51.090;-115.340;2023-05-10T05:45:22;86737.40;;;8.90
74539;BMP180;66042;51.090;-115.340;2023-05-10T05:47:49;86735.60;;;8.90
74539;BMP180;66042;51.090;-115.340;2023-05-10T05:50:16;86733.60;;;8.90
74539;BMP180;66042;51.090;-115.340;2023-05-10T05:52:42;86733.20;;;8.90
74539;BMP180;66042;51.090;-115.340;2023-05-10T05:55:09;86733.40;;;8.90
74539;BMP180;66042;51.090;-115.340;2023-05-10T05:57:36;86736.00;;;8.80
74539;BMP180;66042;51.090;-115.340;2023-05-10T06:00:03;86739.20;;;8.80
74539;BMP180;66042;51.090;-115.340;2023-05-10T06:02:31;86741.20;;;8.80
74539;BMP180;66042;51.090;-115.340;2023-05-10T06:04:58;86737.40;;;8.80
74539;BMP180;66042;51.090;-115.340;2023-05-10T06:07:24;86735.40;;;8.80
74539;BMP180;66042;51.090;-115.340;2023-05-10T06:09:52;86735.60;;;8.80
74539;BMP180;66042;51.090;-115.340;2023-05-10T06:12:19;86738.60;;;8.80
74539;BMP180;66042;51.090;-115.340;2023-05-10T06:14:46;86742.80;;;8.70
74539;BMP180;66042;51.090;-115.340;2023-05-10T06:17:13;86745.20;;;8.70
74539;BMP180;66042;51.090;-115.340;2023-05-10T06:19:40;86745.00;;;8.70
74539;BMP180;66042;51.090;-115.340;2023-05-10T06:22:07;86738.60;;;8.70
74539;BMP180;66042;51.090;-115.340;2023-05-10T06:24:33;86745.60;;;8.70
74539;BMP180;66042;51.090;-115.340;2023-05-10T06:27:00;86744.60;;;8.62
74539;BMP180;66042;51.090;-115.340;2023-05-10T06:29:27;86743.00;;;8.60
74539;BMP180;66042;51.090;-115.340;2023-05-10T06:31:54;86741.60;;;8.60
74539;BMP180;66042;51.090;-115.340;2023-05-10T06:34:21;86746.00;;;8.60
74539;BMP180;66042;51.090;-115.340;2023-05-10T06:36:48;86744.80;;;8.60
74539;BMP180;66042;51.090;-115.340;2023-05-10T06:39:15;86739.60;;;8.60
74539;BMP180;66042;51.090;-115.340;2023-05-10T06:41:42;86739.40;;;8.62
74539;BMP180;66042;51.090;-115.340;2023-05-10T06:44:09;86742.40;;;8.62
74539;BMP180;66042;51.090;-115.340;2023-05-10T06:46:36;86741.20;;;8.60
74539;BMP180;66042;51.090;-115.340;2023-05-10T06:49:03;86740.20;;;8.60
74539;BMP180;66042;51.090;-115.340;2023-05-10T06:51:31;86738.20;;;8.60
74539;BMP180;66042;51.090;-115.340;2023-05-10T06:53:59;86742.20;;;8.60
74539;BMP180;66042;51.090;-115.340;2023-05-10T06:56:26;86746.40;;;8.60
74539;BMP180;66042;51.090;-115.340;2023-05-10T06:58:53;86748.40;;;8.60
74539;BMP180;66042;51.090;-115.340;2023-05-10T07:01:20;86747.40;;;8.60
74539;BMP180;66042;51.090;-115.340;2023-05-10T07:03:47;86746.00;;;8.60
74539;BMP180;66042;51.090;-115.340;2023-05-10T07:06:14;86748.80;;;8.60
74539;BMP180;66042;51.090;-115.340;2023-05-10T07:08:40;86748.00;;;8.60
74539;BMP180;66042;51.090;-115.340;2023-05-10T07:11:07;86746.80;;;8.60
74539;BMP180;66042;51.090;-115.340;2023-05-10T07:13:35;86747.60;;;8.60
74539;BMP180;66042;51.090;-115.340;2023-05-10T07:16:03;86746.80;;;8.60
74539;BMP180;66042;51.090;-115.340;2023-05-10T07:18:31;86740.80;;;8.60
74539;BMP180;66042;51.090;-115.340;2023-05-10T07:20:58;86745.20;;;8.60
74539;BMP180;66042;51.090;-115.340;2023-05-10T07:23:25;86744.20;;;8.60
74539;BMP180;66042;51.090;-115.340;2023-05-10T07:25:52;86746.80;;;8.60
74539;BMP180;66042;51.090;-115.340;2023-05-10T07:28:19;86747.80;;;8.60
74539;BMP180;66042;51.090;-115.340;2023-05-10T07:30:47;86747.40;;;8.50
74539;BMP180;66042;51.090;-115.340;2023-05-10T07:33:15;86747.80;;;8.50
74539;BMP180;66042;51.090;-115.340;2023-05-10T07:35:43;86745.20;;;8.50
74539;BMP180;66042;51.090;-115.340;2023-05-10T07:38:10;86743.40;;;8.54
74539;BMP180;66042;51.090;-115.340;2023-05-10T07:40:40;86749.80;;;8.60
74539;BMP180;66042;51.090;-115.340;2023-05-10T07:43:07;86748.40;;;8.60
74539;BMP180;66042;51.090;-115.340;2023-05-10T07:45:34;86746.40;;;8.60
74539;BMP180;66042;51.090;-115.340;2023-05-10T07:48:01;86736.80;;;8.58
74539;BMP180;66042;51.090;-115.340;2023-05-10T07:50:28;86740.20;;;8.50
74539;BMP180;66042;51.090;-115.340;2023-05-10T07:52:54;86733.40;;;8.50
74539;BMP180;66042;51.090;-115.340;2023-05-10T07:55:21;86738.00;;;8.50
74539;BMP180;66042;51.090;-115.340;2023-05-10T07:57:48;86736.40;;;8.50
74539;BMP180;66042;51.090;-115.340;2023-05-10T08:00:19;86735.00;;;8.50
74539;BMP180;66042;51.090;-115.340;2023-05-10T08:02:47;86736.00;;;8.50
74539;BMP180;66042;51.090;-115.340;2023-05-10T08:05:14;86736.00;;;8.50
74539;BMP180;66042;51.090;-115.340;2023-05-10T08:07:41;86738.20;;;8.50
74539;BMP180;66042;51.090;-115.340;2023-05-10T08:10:09;86739.20;;;8.40
74539;BMP180;66042;51.090;-115.340;2023-05-10T08:12:38;86736.80;;;8.40
74539;BMP180;66042;51.090;-115.340;2023-05-10T08:15:05;86736.80;;;8.40
74539;BMP180;66042;51.090;-115.340;2023-05-10T08:17:33;86742.00;;;8.40
74539;BMP180;66042;51.090;-115.340;2023-05-10T08:20:00;86743.20;;;8.32
74539;BMP180;66042;51.090;-115.340;2023-05-10T08:22:27;86745.00;;;8.30
74539;BMP180;66042;51.090;-115.340;2023-05-10T08:24:54;86742.00;;;8.20
74539;BMP180;66042;51.090;-115.340;2023-05-10T08:27:21;86742.80;;;8.20
74539;BMP180;66042;51.090;-115.340;2023-05-10T08:29:50;86749.20;;;8.12
74539;BMP180;66042;51.090;-115.340;2023-05-10T08:32:20;86750.20;;;8.10
74539;BMP180;66042;51.090;-115.340;2023-05-10T08:34:48;86750.00;;;8.10
74539;BMP180;66042;51.090;-115.340;2023-05-10T08:37:14;86749.60;;;8.10
74539;BMP180;66042;51.090;-115.340;2023-05-10T08:39:42;86748.00;;;8.10
74539;BMP180;66042;51.090;-115.340;2023-05-10T08:42:10;86750.60;;;8.10
74539;BMP180;66042;51.090;-115.340;2023-05-10T08:44:37;86748.20;;;8.10
74539;BMP180;66042;51.090;-115.340;2023-05-10T08:47:09;86745.00;;;8.10
74539;BMP180;66042;51.090;-115.340;2023-05-10T08:49:38;86744.20;;;8.10
74539;BMP180;66042;51.090;-115.340;2023-05-10T08:52:07;86743.60;;;8.10
74539;BMP180;66042;51.090;-115.340;2023-05-10T08:54:34;86740.60;;;8.10
74539;BMP180;66042;51.090;-115.340;2023-05-10T08:57:02;86739.60;;;8.10
74539;BMP180;66042;51.090;-115.340;2023-05-10T08:59:29;86738.60;;;8.10
74539;BMP180;66042;51.090;-115.340;2023-05-10T09:02:01;86742.20;;;8.10
74539;BMP180;66042;51.090;-115.340;2023-05-10T09:04:29;86742.80;;;8.10
74539;BMP180;66042;51.090;-115.340;2023-05-10T09:06:56;86744.40;;;8.00
74539;BMP180;66042;51.090;-115.340;2023-05-10T09:09:25;86742.60;;;8.00
74539;BMP180;66042;51.090;-115.340;2023-05-10T09:11:53;86739.40;;;8.00
74539;BMP180;66042;51.090;-115.340;2023-05-10T09:14:20;86737.00;;;8.00
74539;BMP180;66042;51.090;-115.340;2023-05-10T09:16:48;86738.80;;;8.00
74539;BMP180;66042;51.090;-115.340;2023-05-10T09:19:15;86735.20;;;8.02
74539;BMP180;66042;51.090;-115.340;2023-05-10T09:21:42;86741.80;;;8.00
74539;BMP180;66042;51.090;-115.340;2023-05-10T09:24:10;86738.40;;;8.00
74539;BMP180;66042;51.090;-115.340;2023-05-10T09:26:47;86740.60;;;8.00
74539;BMP180;66042;51.090;-115.340;2023-05-10T09:29:16;86744.00;;;8.00
74539;BMP180;66042;51.090;-115.340;2023-05-10T09:31:49;86744.00;;;7.98
74539;BMP180;66042;51.090;-115.340;2023-05-10T09:34:32;86741.60;;;7.90
74539;BMP180;66042;51.090;-115.340;2023-05-10T09:37:02;86741.80;;;7.90
74539;BMP180;66042;51.090;-115.340;2023-05-10T09:39:35;86739.20;;;7.90
74539;BMP180;66042;51.090;-115.340;2023-05-10T09:42:06;86741.60;;;7.88
74539;BMP180;66042;51.090;-115.340;2023-05-10T09:44:35;86741.00;;;7.90
74539;BMP180;66042;51.090;-115.340;2023-05-10T09:47:03;86743.80;;;7.90
74539;BMP180;66042;51.090;-115.340;2023-05-10T09:49:30;86744.80;;;7.90
74539;BMP180;66042;51.090;-115.340;2023-05-10T09:52:04;86742.00;;;7.80
74539;BMP180;66042;51.090;-115.340;2023-05-10T09:54:33;86744.20;;;7.80
74539;BMP180;66042;51.090;-115.340;2023-05-10T09:57:01;86738.80;;;7.80
74539;BMP180;66042;51.090;-115.340;2023-05-10T09:59:29;86737.00;;;7.80
74539;BMP180;66042;51.090;-115.340;2023-05-10T10:01:59;86734.00;;;7.80
74539;BMP180;66042;51.090;-115.340;2023-05-10T10:04:26;86735.00;;;7.70
74539;BMP180;66042;51.090;-115.340;2023-05-10T10:07:04;86734.40;;;7.70
74539;BMP180;66042;51.090;-115.340;2023-05-10T10:09:33;86737.00;;;7.70
74539;BMP180;66042;51.090;-115.340;2023-05-10T10:12:03;86736.40;;;7.70
74539;BMP180;66042;51.090;-115.340;2023-05-10T10:14:30;86735.00;;;7.70
74539;BMP180;66042;51.090;-115.340;2023-05-10T10:17:01;86736.00;;;7.68
74539;BMP180;66042;51.090;-115.340;2023-05-10T10:19:28;86731.40;;;7.70
74539;BMP180;66042;51.090;-115.340;2023-05-10T10:21:57;86733.80;;;7.70
74539;BMP180;66042;51.090;-115.340;2023-05-10T10:24:25;86735.20;;;7.68
74539;BMP180;66042;51.090;-115.340;2023-05-10T10:27:08;86737.40;;;7.70
74539;BMP180;66042;51.090;-115.340;2023-05-10T10:30:00;86735.80;;;7.60
74539;BMP180;66042;51.090;-115.340;2023-05-10T10:32:48;86736.80;;;7.60
74539;BMP180;66042;51.090;-115.340;2023-05-10T10:35:20;86736.00;;;7.50
74539;BMP180;66042;51.090;-115.340;2023-05-10T10:37:50;86739.60;;;7.50
74539;BMP180;66042;51.090;-115.340;2023-05-10T10:40:35;86740.40;;;7.50
74539;BMP180;66042;51.090;-115.340;2023-05-10T10:43:29;86744.20;;;7.50
74539;BMP180;66042;51.090;-115.340;2023-05-10T10:46:14;86738.40;;;7.40
74539;BMP180;66042;51.090;-115.340;2023-05-10T10:48:47;86741.60;;;7.40
74539;BMP180;66042;51.090;-115.340;2023-05-10T10:51:14;86742.60;;;7.40
74539;BMP180;66042;51.090;-115.340;2023-05-10T10:53:43;86745.00;;;7.40
74539;BMP180;66042;51.090;-115.340;2023-05-10T10:56:13;86746.00;;;7.40
74539;BMP180;66042;51.090;-115.340;2023-05-10T10:58:49;86750.20;;;7.40
74539;BMP180;66042;51.090;-115.340;2023-05-10T11:01:20;86755.00;;;7.40
74539;BMP180;66042;51.090;-115.340;2023-05-10T11:06:35;86757.00;;;7.30
74539;BMP180;66042;51.090;-115.340;2023-05-10T11:09:10;86752.80;;;7.30
74539;BMP180;66042;51.090;-115.340;2023-05-10T11:11:53;86753.20;;;7.30
74539;BMP180;66042;51.090;-115.340;2023-05-10T11:14:26;86760.80;;;7.28
74539;BMP180;66042;51.090;-115.340;2023-05-10T11:16:53;86762.00;;;7.28
74539;BMP180;66042;51.090;-115.340;2023-05-10T11:19:20;86760.60;;;7.30
74539;BMP180;66042;51.090;-115.340;2023-05-10T11:24:33;86764.60;;;7.30
74539;BMP180;66042;51.090;-115.340;2023-05-10T11:27:02;86768.80;;;7.30
74539;BMP180;66042;51.090;-115.340;2023-05-10T11:29:30;86773.00;;;7.30
74539;BMP180;66042;51.090;-115.340;2023-05-10T11:31:59;86770.80;;;7.30
74539;BMP180;66042;51.090;-115.340;2023-05-10T11:34:31;86773.80;;;7.30
74539;BMP180;66042;51.090;-115.340;2023-05-10T11:37:00;86770.00;;;7.30
74539;BMP180;66042;51.090;-115.340;2023-05-10T11:39:31;86771.00;;;7.24
74539;BMP180;66042;51.090;-115.340;2023-05-10T11:42:00;86777.80;;;7.20
74539;BMP180;66042;51.090;-115.340;2023-05-10T11:44:31;86780.60;;;7.20
74539;BMP180;66042;51.090;-115.340;2023-05-10T11:47:02;86779.60;;;7.20
74539;BMP180;66042;51.090;-115.340;2023-05-10T11:49:29;86777.00;;;7.18
74539;BMP180;66042;51.090;-115.340;2023-05-10T11:52:07;86778.80;;;7.20
74539;BMP180;66042;51.090;-115.340;2023-05-10T11:54:34;86779.40;;;7.20
74539;BMP180;66042;51.090;-115.340;2023-05-10T11:57:02;86777.80;;;7.20
74539;BMP180;66042;51.090;-115.340;2023-05-10T11:59:29;86778.00;;;7.20
74539;BMP180;66042;51.090;-115.340;2023-05-10T12:01:57;86782.40;;;7.20
74539;BMP180;66042;51.090;-115.340;2023-05-10T12:04:24;86778.40;;;7.20
74539;BMP180;66042;51.090;-115.340;2023-05-10T12:06:52;86783.40;;;7.20
74539;BMP180;66042;51.090;-115.340;2023-05-10T12:09:19;86784.00;;;7.20
74539;BMP180;66042;51.090;-115.340;2023-05-10T12:11:46;86777.80;;;7.20
74539;BMP180;66042;51.090;-115.340;2023-05-10T12:14:13;86782.80;;;7.20
74539;BMP180;66042;51.090;-115.340;2023-05-10T12:16:43;86788.00;;;7.20
74539;BMP180;66042;51.090;-115.340;2023-05-10T12:19:10;86785.40;;;7.20
74539;BMP180;66042;51.090;-115.340;2023-05-10T12:21:37;86784.00;;;7.10
74539;BMP180;66042;51.090;-115.340;2023-05-10T12:24:05;86791.00;;;7.10
74539;BMP180;66042;51.090;-115.340;2023-05-10T12:26:32;86790.00;;;7.10
74539;BMP180;66042;51.090;-115.340;2023-05-10T12:29:18;86790.80;;;7.10
74539;BMP180;66042;51.090;-115.340;2023-05-10T12:31:57;86785.60;;;7.02
74539;BMP180;66042;51.090;-115.340;2023-05-10T12:34:35;86787.00;;;7.06
74539;BMP180;66042;51.090;-115.340;2023-05-10T12:37:04;86784.60;;;7.10
74539;BMP180;66042;51.090;-115.340;2023-05-10T12:39:42;86784.40;;;7.08
74539;BMP180;66042;51.090;-115.340;2023-05-10T12:42:10;86785.80;;;7.10
74539;BMP180;66042;51.090;-115.340;2023-05-10T12:44:38;86785.20;;;7.10
74539;BMP180;66042;51.090;-115.340;2023-05-10T12:47:05;86782.40;;;7.10
74539;BMP180;66042;51.090;-115.340;2023-05-10T12:49:32;86782.60;;;7.10
74539;BMP180;66042;51.090;-115.340;2023-05-10T12:51:59;86781.80;;;7.10
74539;BMP180;66042;51.090;-115.340;2023-05-10T12:54:26;86781.60;;;7.10
74539;BMP180;66042;51.090;-115.340;2023-05-10T12:56:54;86783.80;;;7.10
74539;BMP180;66042;51.090;-115.340;2023-05-10T12:59:21;86777.60;;;7.10
74539;BMP180;66042;51.090;-115.340;2023-05-10T13:01:48;86779.20;;;7.10
74539;BMP180;66042;51.090;-115.340;2023-05-10T13:04:15;86780.80;;;7.10
74539;BMP180;66042;51.090;-115.340;2023-05-10T13:06:43;86782.80;;;7.10
74539;BMP180;66042;51.090;-115.340;2023-05-10T13:09:09;86779.60;;;7.20
74539;BMP180;66042;51.090;-115.340;2023-05-10T13:11:36;86780.80;;;7.20
74539;BMP180;66042;51.090;-115.340;2023-05-10T13:14:04;86781.60;;;7.20
74539;BMP180;66042;51.090;-115.340;2023-05-10T13:16:31;86785.20;;;7.20
74539;BMP180;66042;51.090;-115.340;2023-05-10T13:18:58;86782.20;;;7.18
74539;BMP180;66042;51.090;-115.340;2023-05-10T13:21:25;86787.60;;;7.20
74539;BMP180;66042;51.090;-115.340;2023-05-10T13:23:53;86788.80;;;7.20
74539;BMP180;66042;51.090;-115.340;2023-05-10T13:26:20;86793.80;;;7.20
74539;BMP180;66042;51.090;-115.340;2023-05-10T13:28:47;86794.60;;;7.22
74539;BMP180;66042;51.090;-115.340;2023-05-10T13:31:15;86795.60;;;7.30
74539;BMP180;66042;51.090;-115.340;2023-05-10T13:33:42;86797.40;;;7.30
74539;BMP180;66042;51.090;-115.340;2023-05-10T13:36:09;86796.80;;;7.38
74539;BMP180;66042;51.090;-115.340;2023-05-10T13:38:35;86797.00;;;7.40
74539;BMP180;66042;51.090;-115.340;2023-05-10T13:41:03;86799.40;;;7.40
74539;BMP180;66042;51.090;-115.340;2023-05-10T13:43:30;86801.00;;;7.40
74539;BMP180;66042;51.090;-115.340;2023-05-10T13:45:58;86807.80;;;7.44
74539;BMP180;66042;51.090;-115.340;2023-05-10T13:48:26;86806.20;;;7.50
74539;BMP180;66042;51.090;-115.340;2023-05-10T13:50:53;86806.20;;;7.50
74539;BMP180;66042;51.090;-115.340;2023-05-10T13:53:19;86808.00;;;7.50
74539;BMP180;66042;51.090;-115.340;2023-05-10T13:55:47;86803.60;;;7.50
74539;BMP180;66042;51.090;-115.340;2023-05-10T13:58:15;86806.40;;;7.56
74539;BMP180;66042;51.090;-115.340;2023-05-10T14:00:41;86810.20;;;7.50
74539;BMP180;66042;51.090;-115.340;2023-05-10T14:03:08;86804.40;;;7.38
74539;BMP180;66042;51.090;-115.340;2023-05-10T14:05:37;86813.20;;;7.40
74539;BMP180;66042;51.090;-115.340;2023-05-10T14:08:04;86808.80;;;7.40
74539;BMP180;66042;51.090;-115.340;2023-05-10T14:10:31;86805.60;;;7.30
74539;BMP180;66042;51.090;-115.340;2023-05-10T14:12:58;86810.00;;;7.30